Shark Bay Denham, Australia
Current Conditions -  °F | °C
As of 10:00 AM on Wednesday 22 Oct 2014 (Local Time) from YCAR Reporting Station
Few Clouds Few Clouds  
Wind Chill: 75°   Ceiling: Unl
Heat Index: 75°   Visibility: 6mi
Dew Point: 59°   Wind: 13mph
Humidity: 57%   Direction: 210°SSW
Pressure: 30.06"   Gusts: NA
Location:  25.88°S, 113.56°E
Report Text: YCAR 220200Z 21011KT 9999 FEW024 24/15 Q1018
Loading
Personal Weather Stations






























Interactive Weather Map
Tropical Storm Tracking
New forecast layout! Learn more

10-Day Weather Forecast

Advertisements
Track Severe Weather on mobile